sensor_id;sensor_type;location;lat;lon;timestamp;temperature;humidity
39189;DHT22;24915;50.858;4.376;2023-09-07T00:01:27;23.30;97.10
39189;DHT22;24915;50.858;4.376;2023-09-07T00:03:53;23.30;97.10
39189;DHT22;24915;50.858;4.376;2023-09-07T00:06:18;23.30;97.10
39189;DHT22;24915;50.858;4.376;2023-09-07T00:08:44;23.30;97.20
39189;DHT22;24915;50.858;4.376;2023-09-07T00:11:10;23.20;97.20
39189;DHT22;24915;50.858;4.376;2023-09-07T00:13:36;23.20;97.30
39189;DHT22;24915;50.858;4.376;2023-09-07T00:16:03;23.10;97.50
39189;DHT22;24915;50.858;4.376;2023-09-07T00:18:30;23.10;97.60
39189;DHT22;24915;50.858;4.376;2023-09-07T00:20:55;23.10;97.60
39189;DHT22;24915;50.858;4.376;2023-09-07T00:23:21;23.10;97.70
39189;DHT22;24915;50.858;4.376;2023-09-07T00:25:48;23.10;97.70
39189;DHT22;24915;50.858;4.376;2023-09-07T00:28:13;23.00;97.80
39189;DHT22;24915;50.858;4.376;2023-09-07T00:30:39;23.00;97.90
39189;DHT22;24915;50.858;4.376;2023-09-07T00:33:06;22.90;98.10
39189;DHT22;24915;50.858;4.376;2023-09-07T00:35:31;22.80;98.10
39189;DHT22;24915;50.858;4.376;2023-09-07T00:37:57;22.80;98.20
39189;DHT22;24915;50.858;4.376;2023-09-07T00:40:23;22.80;98.30
39189;DHT22;24915;50.858;4.376;2023-09-07T00:42:49;22.70;98.30
39189;DHT22;24915;50.858;4.376;2023-09-07T00:45:15;22.70;98.40
39189;DHT22;24915;50.858;4.376;2023-09-07T00:47:41;22.60;97.90
39189;DHT22;24915;50.858;4.376;2023-09-07T00:50:07;22.50;97.30
39189;DHT22;24915;50.858;4.376;2023-09-07T00:52:34;22.50;97.50
39189;DHT22;24915;50.858;4.376;2023-09-07T00:55:01;22.50;97.10
39189;DHT22;24915;50.858;4.376;2023-09-07T00:57:27;22.50;96.90
39189;DHT22;24915;50.858;4.376;2023-09-07T00:59:54;22.50;97.00
39189;DHT22;24915;50.858;4.376;2023-09-07T01:02:19;22.50;97.00
39189;DHT22;24915;50.858;4.376;2023-09-07T01:04:45;22.50;96.80
39189;DHT22;24915;50.858;4.376;2023-09-07T01:07:17;22.50;96.50
39189;DHT22;24915;50.858;4.376;2023-09-07T01:09:47;22.40;96.20
39189;DHT22;24915;50.858;4.376;2023-09-07T01:12:15;22.40;96.20
39189;DHT22;24915;50.858;4.376;2023-09-07T01:14:41;22.40;96.40
39189;DHT22;24915;50.858;4.376;2023-09-07T01:17:07;22.50;96.60
39189;DHT22;24915;50.858;4.376;2023-09-07T01:19:34;22.40;96.70
39189;DHT22;24915;50.858;4.376;2023-09-07T01:22:00;22.40;96.80
39189;DHT22;24915;50.858;4.376;2023-09-07T01:24:26;22.40;96.80
39189;DHT22;24915;50.858;4.376;2023-09-07T01:26:56;22.40;96.90
39189;DHT22;24915;50.858;4.376;2023-09-07T01:29:22;22.40;97.10
39189;DHT22;24915;50.858;4.376;2023-09-07T01:31:48;22.40;97.40
39189;DHT22;24915;50.858;4.376;2023-09-07T01:34:14;22.40;97.50
39189;DHT22;24915;50.858;4.376;2023-09-07T01:36:40;22.30;97.30
39189;DHT22;24915;50.858;4.376;2023-09-07T01:39:06;22.30;97.30
39189;DHT22;24915;50.858;4.376;2023-09-07T01:41:32;22.30;97.30
39189;DHT22;24915;50.858;4.376;2023-09-07T01:43:59;22.30;97.20
39189;DHT22;24915;50.858;4.376;2023-09-07T01:46:24;22.20;97.30
39189;DHT22;24915;50.858;4.376;2023-09-07T01:48:50;22.20;97.50
39189;DHT22;24915;50.858;4.376;2023-09-07T01:51:16;22.10;97.50
39189;DHT22;24915;50.858;4.376;2023-09-07T01:53:41;22.10;97.70
39189;DHT22;24915;50.858;4.376;2023-09-07T01:56:07;22.10;97.80
39189;DHT22;24915;50.858;4.376;2023-09-07T01:58:33;22.10;98.00
39189;DHT22;24915;50.858;4.376;2023-09-07T02:00:59;22.10;98.10
39189;DHT22;24915;50.858;4.376;2023-09-07T02:03:26;22.10;98.10
39189;DHT22;24915;50.858;4.376;2023-09-07T02:05:55;22.10;98.20
39189;DHT22;24915;50.858;4.376;2023-09-07T02:08:21;22.00;98.30
39189;DHT22;24915;50.858;4.376;2023-09-07T02:10:46;22.00;98.30
39189;DHT22;24915;50.858;4.376;2023-09-07T02:13:12;22.00;98.10
39189;DHT22;24915;50.858;4.376;2023-09-07T02:15:38;22.00;98.00
39189;DHT22;24915;50.858;4.376;2023-09-07T02:18:05;21.90;97.60
39189;DHT22;24915;50.858;4.376;2023-09-07T02:20:32;21.90;97.40
39189;DHT22;24915;50.858;4.376;2023-09-07T02:22:58;22.00;97.30
39189;DHT22;24915;50.858;4.376;2023-09-07T02:25:23;21.90;96.90
39189;DHT22;24915;50.858;4.376;2023-09-07T02:27:49;21.90;96.50
39189;DHT22;24915;50.858;4.376;2023-09-07T02:30:15;21.90;96.50
39189;DHT22;24915;50.858;4.376;2023-09-07T02:32:44;21.90;96.60
39189;DHT22;24915;50.858;4.376;2023-09-07T02:35:10;21.90;96.50
39189;DHT22;24915;50.858;4.376;2023-09-07T02:37:36;21.90;96.30
39189;DHT22;24915;50.858;4.376;2023-09-07T02:40:02;21.80;96.30
39189;DHT22;24915;50.858;4.376;2023-09-07T02:42:32;21.80;96.20
39189;DHT22;24915;50.858;4.376;2023-09-07T02:44:57;21.70;96.10
39189;DHT22;24915;50.858;4.376;2023-09-07T02:47:23;21.70;96.40
39189;DHT22;24915;50.858;4.376;2023-09-07T02:49:49;21.70;96.60
39189;DHT22;24915;50.858;4.376;2023-09-07T02:52:14;21.80;96.60
39189;DHT22;24915;50.858;4.376;2023-09-07T02:54:41;21.70;96.60
39189;DHT22;24915;50.858;4.376;2023-09-07T02:57:07;21.70;96.50
39189;DHT22;24915;50.858;4.376;2023-09-07T02:59:33;21.70;96.50
39189;DHT22;24915;50.858;4.376;2023-09-07T03:01:58;21.60;96.50
39189;DHT22;24915;50.858;4.376;2023-09-07T03:04:24;21.60;96.50
39189;DHT22;24915;50.858;4.376;2023-09-07T03:06:50;21.50;96.90
39189;DHT22;24915;50.858;4.376;2023-09-07T03:09:15;21.50;96.70
39189;DHT22;24915;50.858;4.376;2023-09-07T03:11:41;21.50;96.70
39189;DHT22;24915;50.858;4.376;2023-09-07T03:14:07;21.50;96.70
39189;DHT22;24915;50.858;4.376;2023-09-07T03:16:33;21.40;96.80
39189;DHT22;24915;50.858;4.376;2023-09-07T03:18:58;21.40;96.90
39189;DHT22;24915;50.858;4.376;2023-09-07T03:21:24;21.50;96.90
39189;DHT22;24915;50.858;4.376;2023-09-07T03:23:58;21.40;97.00
39189;DHT22;24915;50.858;4.376;2023-09-07T03:26:24;21.40;97.00
39189;DHT22;24915;50.858;4.376;2023-09-07T03:28:50;21.40;97.00
39189;DHT22;24915;50.858;4.376;2023-09-07T03:31:16;21.40;97.40
39189;DHT22;24915;50.858;4.376;2023-09-07T03:33:41;21.40;97.80
39189;DHT22;24915;50.858;4.376;2023-09-07T03:36:07;21.40;98.10
39189;DHT22;24915;50.858;4.376;2023-09-07T03:38:35;21.40;97.90
39189;DHT22;24915;50.858;4.376;2023-09-07T03:41:00;21.40;97.80
39189;DHT22;24915;50.858;4.376;2023-09-07T03:43:26;21.30;98.00
39189;DHT22;24915;50.858;4.376;2023-09-07T03:45:52;21.30;98.20
39189;DHT22;24915;50.858;4.376;2023-09-07T03:48:17;21.30;98.40
39189;DHT22;24915;50.858;4.376;2023-09-07T03:50:44;21.20;98.30
39189;DHT22;24915;50.858;4.376;2023-09-07T03:53:10;21.20;98.50
39189;DHT22;24915;50.858;4.376;2023-09-07T03:55:43;21.20;98.40
39189;DHT22;24915;50.858;4.376;2023-09-07T03:58:10;21.20;98.30
39189;DHT22;24915;50.858;4.376;2023-09-07T04:00:38;21.20;98.50
39189;DHT22;24915;50.858;4.376;2023-09-07T04:03:05;21.20;98.60
39189;DHT22;24915;50.858;4.376;2023-09-07T04:05:31;21.10;98.40
39189;DHT22;24915;50.858;4.376;2023-09-07T04:07:56;21.10;98.30
39189;DHT22;24915;50.858;4.376;2023-09-07T04:10:23;21.10;98.60
39189;DHT22;24915;50.858;4.376;2023-09-07T04:12:49;21.00;98.60
39189;DHT22;24915;50.858;4.376;2023-09-07T04:15:15;21.00;98.70
39189;DHT22;24915;50.858;4.376;2023-09-07T04:17:40;21.00;98.70
39189;DHT22;24915;50.858;4.376;2023-09-07T04:20:09;20.90;98.70
39189;DHT22;24915;50.858;4.376;2023-09-07T04:22:40;20.90;98.80
39189;DHT22;24915;50.858;4.376;2023-09-07T04:25:07;20.90;98.90
39189;DHT22;24915;50.858;4.376;2023-09-07T04:27:32;20.90;98.90
39189;DHT22;24915;50.858;4.376;2023-09-07T04:29:58;20.90;99.00
39189;DHT22;24915;50.858;4.376;2023-09-07T04:32:24;20.90;99.00
39189;DHT22;24915;50.858;4.376;2023-09-07T04:34:55;20.80;99.00
39189;DHT22;24915;50.858;4.376;2023-09-07T04:37:22;20.80;99.00
39189;DHT22;24915;50.858;4.376;2023-09-07T04:39:51;20.80;99.10
39189;DHT22;24915;50.858;4.376;2023-09-07T04:42:20;20.80;99.30
39189;DHT22;24915;50.858;4.376;2023-09-07T04:44:46;20.80;99.50
39189;DHT22;24915;50.858;4.376;2023-09-07T04:47:13;20.70;99.50
39189;DHT22;24915;50.858;4.376;2023-09-07T04:49:39;20.70;99.50
39189;DHT22;24915;50.858;4.376;2023-09-07T04:52:05;20.70;99.60
39189;DHT22;24915;50.858;4.376;2023-09-07T04:54:31;20.60;99.60
39189;DHT22;24915;50.858;4.376;2023-09-07T04:56:56;20.60;99.70
39189;DHT22;24915;50.858;4.376;2023-09-07T04:59:22;20.60;99.80
39189;DHT22;24915;50.858;4.376;2023-09-07T05:01:48;20.60;99.90
39189;DHT22;24915;50.858;4.376;2023-09-07T05:04:13;20.60;99.90
39189;DHT22;24915;50.858;4.376;2023-09-07T05:06:39;20.60;99.90
39189;DHT22;24915;50.858;4.376;2023-09-07T05:09:07;20.60;99.90
39189;DHT22;24915;50.858;4.376;2023-09-07T05:11:33;20.60;99.90
39189;DHT22;24915;50.858;4.376;2023-09-07T05:14:02;20.60;99.90
39189;DHT22;24915;50.858;4.376;2023-09-07T05:16:28;20.60;99.90
39189;DHT22;24915;50.858;4.376;2023-09-07T05:18:54;20.60;99.90
39189;DHT22;24915;50.858;4.376;2023-09-07T05:21:19;20.50;99.90
39189;DHT22;24915;50.858;4.376;2023-09-07T05:23:46;20.50;99.90
39189;DHT22;24915;50.858;4.376;2023-09-07T05:26:12;20.50;99.90
39189;DHT22;24915;50.858;4.376;2023-09-07T05:28:40;20.50;99.90
39189;DHT22;24915;50.858;4.376;2023-09-07T05:31:09;20.50;99.90
39189;DHT22;24915;50.858;4.376;2023-09-07T05:33:34;20.50;99.90
39189;DHT22;24915;50.858;4.376;2023-09-07T05:36:00;20.60;99.90
39189;DHT22;24915;50.858;4.376;2023-09-07T05:38:27;20.60;99.90
39189;DHT22;24915;50.858;4.376;2023-09-07T05:40:53;20.70;99.90
39189;DHT22;24915;50.858;4.376;2023-09-07T05:43:20;20.80;99.90
39189;DHT22;24915;50.858;4.376;2023-09-07T05:45:46;20.90;99.90
39189;DHT22;24915;50.858;4.376;2023-09-07T05:48:13;21.00;99.90
39189;DHT22;24915;50.858;4.376;2023-09-07T05:50:40;21.10;99.90
39189;DHT22;24915;50.858;4.376;2023-09-07T05:53:05;21.20;99.90
39189;DHT22;24915;50.858;4.376;2023-09-07T05:55:31;21.40;99.70
39189;DHT22;24915;50.858;4.376;2023-09-07T05:57:58;21.40;99.60
39189;DHT22;24915;50.858;4.376;2023-09-07T06:00:24;21.60;99.30
39189;DHT22;24915;50.858;4.376;2023-09-07T06:02:50;21.70;99.20
39189;DHT22;24915;50.858;4.376;2023-09-07T06:05:16;21.80;99.00
39189;DHT22;24915;50.858;4.376;2023-09-07T06:07:42;21.90;98.50
39189;DHT22;24915;50.858;4.376;2023-09-07T06:10:08;22.10;98.60
39189;DHT22;24915;50.858;4.376;2023-09-07T06:12:34;22.20;98.40
39189;DHT22;24915;50.858;4.376;2023-09-07T06:15:01;22.30;97.70
39189;DHT22;24915;50.858;4.376;2023-09-07T06:17:27;22.30;97.40
39189;DHT22;24915;50.858;4.376;2023-09-07T06:19:54;22.40;97.60
39189;DHT22;24915;50.858;4.376;2023-09-07T06:22:20;22.50;97.50
39189;DHT22;24915;50.858;4.376;2023-09-07T06:24:45;22.70;97.30
39189;DHT22;24915;50.858;4.376;2023-09-07T06:27:11;22.90;97.30
39189;DHT22;24915;50.858;4.376;2023-09-07T06:29:37;23.10;97.00
39189;DHT22;24915;50.858;4.376;2023-09-07T06:32:03;23.20;96.40
39189;DHT22;24915;50.858;4.376;2023-09-07T06:34:28;23.30;96.40
39189;DHT22;24915;50.858;4.376;2023-09-07T06:36:54;23.30;96.00
39189;DHT22;24915;50.858;4.376;2023-09-07T06:39:20;23.40;96.10
39189;DHT22;24915;50.858;4.376;2023-09-07T06:41:46;23.50;95.90
39189;DHT22;24915;50.858;4.376;2023-09-07T06:44:12;23.70;95.70
39189;DHT22;24915;50.858;4.376;2023-09-07T06:46:37;23.80;95.30
39189;DHT22;24915;50.858;4.376;2023-09-07T06:49:03;24.00;94.80
39189;DHT22;24915;50.858;4.376;2023-09-07T06:51:30;24.10;94.50
39189;DHT22;24915;50.858;4.376;2023-09-07T06:53:56;24.20;94.60
39189;DHT22;24915;50.858;4.376;2023-09-07T06:56:22;24.20;94.10
39189;DHT22;24915;50.858;4.376;2023-09-07T06:58:48;24.30;94.40
39189;DHT22;24915;50.858;4.376;2023-09-07T07:01:13;24.40;93.80
39189;DHT22;24915;50.858;4.376;2023-09-07T07:03:39;24.40;93.70
39189;DHT22;24915;50.858;4.376;2023-09-07T07:06:05;24.50;94.00
39189;DHT22;24915;50.858;4.376;2023-09-07T07:08:30;24.60;93.90
39189;DHT22;24915;50.858;4.376;2023-09-07T07:10:56;24.80;93.60
39189;DHT22;24915;50.858;4.376;2023-09-07T07:13:21;24.90;93.60
39189;DHT22;24915;50.858;4.376;2023-09-07T07:15:47;25.00;93.20
39189;DHT22;24915;50.858;4.376;2023-09-07T07:18:13;25.10;92.80
39189;DHT22;24915;50.858;4.376;2023-09-07T07:20:39;25.10;92.90
39189;DHT22;24915;50.858;4.376;2023-09-07T07:23:05;25.30;92.80
39189;DHT22;24915;50.858;4.376;2023-09-07T07:25:34;25.40;92.90
39189;DHT22;24915;50.858;4.376;2023-09-07T07:28:00;25.50;92.50
39189;DHT22;24915;50.858;4.376;2023-09-07T07:30:29;25.50;91.90
39189;DHT22;24915;50.858;4.376;2023-09-07T07:32:55;25.50;92.10
39189;DHT22;24915;50.858;4.376;2023-09-07T07:35:21;25.40;92.00
39189;DHT22;24915;50.858;4.376;2023-09-07T07:37:49;25.50;91.90
39189;DHT22;24915;50.858;4.376;2023-09-07T07:40:15;25.50;91.80
39189;DHT22;24915;50.858;4.376;2023-09-07T07:42:41;25.70;91.80
39189;DHT22;24915;50.858;4.376;2023-09-07T07:45:07;25.80;91.60
39189;DHT22;24915;50.858;4.376;2023-09-07T07:47:33;25.90;90.90
39189;DHT22;24915;50.858;4.376;2023-09-07T07:49:59;26.00;91.50
39189;DHT22;24915;50.858;4.376;2023-09-07T07:52:24;26.00;90.70
39189;DHT22;24915;50.858;4.376;2023-09-07T07:54:50;25.90;90.70
39189;DHT22;24915;50.858;4.376;2023-09-07T07:57:16;25.90;91.10
39189;DHT22;24915;50.858;4.376;2023-09-07T07:59:41;26.00;91.00
39189;DHT22;24915;50.858;4.376;2023-09-07T08:02:07;26.00;91.00
39189;DHT22;24915;50.858;4.376;2023-09-07T08:04:33;26.20;90.70
39189;DHT22;24915;50.858;4.376;2023-09-07T08:07:00;26.30;90.10
39189;DHT22;24915;50.858;4.376;2023-09-07T08:09:33;26.40;89.80
39189;DHT22;24915;50.858;4.376;2023-09-07T08:11:59;26.50;89.20
39189;DHT22;24915;50.858;4.376;2023-09-07T08:14:28;26.50;89.40
39189;DHT22;24915;50.858;4.376;2023-09-07T08:16:54;26.50;89.20
39189;DHT22;24915;50.858;4.376;2023-09-07T08:19:20;26.60;89.40
39189;DHT22;24915;50.858;4.376;2023-09-07T08:21:46;26.80;89.20
39189;DHT22;24915;50.858;4.376;2023-09-07T08:24:12;27.00;88.00
39189;DHT22;24915;50.858;4.376;2023-09-07T08:26:37;27.10;88.20
39189;DHT22;24915;50.858;4.376;2023-09-07T08:29:04;27.40;88.70
39189;DHT22;24915;50.858;4.376;2023-09-07T08:31:34;27.60;88.20
39189;DHT22;24915;50.858;4.376;2023-09-07T08:34:05;27.80;87.20
39189;DHT22;24915;50.858;4.376;2023-09-07T08:36:31;28.10;86.90
39189;DHT22;24915;50.858;4.376;2023-09-07T08:39:00;28.20;85.60
39189;DHT22;24915;50.858;4.376;2023-09-07T08:41:29;28.30;86.60
39189;DHT22;24915;50.858;4.376;2023-09-07T08:43:54;28.50;85.70
39189;DHT22;24915;50.858;4.376;2023-09-07T08:46:23;28.60;85.10
39189;DHT22;24915;50.858;4.376;2023-09-07T08:48:50;28.90;84.80
39189;DHT22;24915;50.858;4.376;2023-09-07T08:51:18;29.00;83.20
39189;DHT22;24915;50.858;4.376;2023-09-07T08:53:44;29.10;83.00
39189;DHT22;24915;50.858;4.376;2023-09-07T08:56:14;29.30;82.70
39189;DHT22;24915;50.858;4.376;2023-09-07T08:58:41;29.40;82.70
39189;DHT22;24915;50.858;4.376;2023-09-07T09:01:07;29.50;80.90
39189;DHT22;24915;50.858;4.376;2023-09-07T09:03:35;29.30;80.80
39189;DHT22;24915;50.858;4.376;2023-09-07T09:06:01;29.40;81.50
39189;DHT22;24915;50.858;4.376;2023-09-07T09:08:28;29.40;81.00
39189;DHT22;24915;50.858;4.376;2023-09-07T09:11:02;29.70;81.60
39189;DHT22;24915;50.858;4.376;2023-09-07T09:13:32;29.80;80.80
39189;DHT22;24915;50.858;4.376;2023-09-07T09:16:01;29.80;80.30
39189;DHT22;24915;50.858;4.376;2023-09-07T09:18:28;29.80;79.60
39189;DHT22;24915;50.858;4.376;2023-09-07T09:20:57;29.80;79.70
39189;DHT22;24915;50.858;4.376;2023-09-07T09:23:35;29.90;79.30
39189;DHT22;24915;50.858;4.376;2023-09-07T09:26:01;30.10;79.70
39189;DHT22;24915;50.858;4.376;2023-09-07T09:28:34;30.10;77.60
39189;DHT22;24915;50.858;4.376;2023-09-07T09:31:01;30.10;77.30
39189;DHT22;24915;50.858;4.376;2023-09-07T09:33:30;30.10;77.70
39189;DHT22;24915;50.858;4.376;2023-09-07T09:35:57;30.10;78.20
39189;DHT22;24915;50.858;4.376;2023-09-07T09:38:23;30.40;77.50
39189;DHT22;24915;50.858;4.376;2023-09-07T09:40:49;30.40;76.80
39189;DHT22;24915;50.858;4.376;2023-09-07T09:43:15;30.60;76.10
39189;DHT22;24915;50.858;4.376;2023-09-07T09:45:41;30.80;76.40
39189;DHT22;24915;50.858;4.376;2023-09-07T09:48:07;30.70;76.30
39189;DHT22;24915;50.858;4.376;2023-09-07T09:50:34;30.60;76.10
39189;DHT22;24915;50.858;4.376;2023-09-07T09:53:05;30.50;76.50
39189;DHT22;24915;50.858;4.376;2023-09-07T09:55:33;30.40;76.60
39189;DHT22;24915;50.858;4.376;2023-09-07T09:57:59;30.40;77.20
39189;DHT22;24915;50.858;4.376;2023-09-07T10:00:25;30.40;77.10
39189;DHT22;24915;50.858;4.376;2023-09-07T10:03:04;30.50;76.80
39189;DHT22;24915;50.858;4.376;2023-09-07T10:05:31;30.70;76.70
39189;DHT22;24915;50.858;4.376;2023-09-07T10:08:08;30.80;77.00
39189;DHT22;24915;50.858;4.376;2023-09-07T10:10:36;30.90;76.80
39189;DHT22;24915;50.858;4.376;2023-09-07T10:13:02;30.90;76.50
39189;DHT22;24915;50.858;4.376;2023-09-07T10:15:29;30.90;77.10
39189;DHT22;24915;50.858;4.376;2023-09-07T10:18:11;30.70;77.30
39189;DHT22;24915;50.858;4.376;2023-09-07T10:21:09;30.70;78.00
39189;DHT22;24915;50.858;4.376;2023-09-07T10:23:38;30.80;78.30
39189;DHT22;24915;50.858;4.376;2023-09-07T10:26:09;31.10;77.80
39189;DHT22;24915;50.858;4.376;2023-09-07T10:28:35;31.40;78.10
39189;DHT22;24915;50.858;4.376;2023-09-07T10:31:05;31.90;77.50
39189;DHT22;24915;50.858;4.376;2023-09-07T10:33:32;32.40;77.40
39189;DHT22;24915;50.858;4.376;2023-09-07T10:35:58;32.70;75.10
39189;DHT22;24915;50.858;4.376;2023-09-07T10:38:24;33.00;75.20
39189;DHT22;24915;50.858;4.376;2023-09-07T10:40:56;33.00;75.00
39189;DHT22;24915;50.858;4.376;2023-09-07T10:43:29;33.40;75.90
39189;DHT22;24915;50.858;4.376;2023-09-07T10:45:56;33.80;74.40
39189;DHT22;24915;50.858;4.376;2023-09-07T10:48:24;34.00;73.20
39189;DHT22;24915;50.858;4.376;2023-09-07T10:50:50;33.90;73.10
39189;DHT22;24915;50.858;4.376;2023-09-07T10:53:28;33.70;73.20
39189;DHT22;24915;50.858;4.376;2023-09-07T10:55:56;33.40;73.80
39189;DHT22;24915;50.858;4.376;2023-09-07T10:58:26;33.20;74.20
39189;DHT22;24915;50.858;4.376;2023-09-07T11:00:53;33.20;74.30
39189;DHT22;24915;50.858;4.376;2023-09-07T11:03:19;33.20;73.40
39189;DHT22;24915;50.858;4.376;2023-09-07T11:05:45;33.50;74.00
39189;DHT22;24915;50.858;4.376;2023-09-07T11:08:10;34.00;73.90
39189;DHT22;24915;50.858;4.376;2023-09-07T11:10:36;34.60;71.60
39189;DHT22;24915;50.858;4.376;2023-09-07T11:13:06;35.00;70.70
39189;DHT22;24915;50.858;4.376;2023-09-07T11:15:33;35.00;70.20
39189;DHT22;24915;50.858;4.376;2023-09-07T11:18:08;35.40;70.60
39189;DHT22;24915;50.858;4.376;2023-09-07T11:20:37;35.70;69.60
39189;DHT22;24915;50.858;4.376;2023-09-07T11:23:05;35.90;67.40
39189;DHT22;24915;50.858;4.376;2023-09-07T11:25:38;35.90;67.90
39189;DHT22;24915;50.858;4.376;2023-09-07T11:28:05;35.80;67.20
39189;DHT22;24915;50.858;4.376;2023-09-07T11:30:32;36.10;67.90
39189;DHT22;24915;50.858;4.376;2023-09-07T11:33:02;36.50;67.50
39189;DHT22;24915;50.858;4.376;2023-09-07T11:35:27;36.90;66.20
39189;DHT22;24915;50.858;4.376;2023-09-07T11:37:53;37.20;65.70
39189;DHT22;24915;50.858;4.376;2023-09-07T11:40:19;37.40;66.00
39189;DHT22;24915;50.858;4.376;2023-09-07T11:42:45;37.50;63.60
39189;DHT22;24915;50.858;4.376;2023-09-07T11:45:10;37.60;62.30
39189;DHT22;24915;50.858;4.376;2023-09-07T11:47:39;37.60;61.90
39189;DHT22;24915;50.858;4.376;2023-09-07T11:50:05;37.70;63.00
39189;DHT22;24915;50.858;4.376;2023-09-07T11:52:32;37.60;61.10
39189;DHT22;24915;50.858;4.376;2023-09-07T11:54:58;37.80;61.60
39189;DHT22;24915;50.858;4.376;2023-09-07T11:57:23;37.90;61.50
39189;DHT22;24915;50.858;4.376;2023-09-07T11:59:49;37.50;61.60
39189;DHT22;24915;50.858;4.376;2023-09-07T12:02:15;37.60;61.60
39189;DHT22;24915;50.858;4.376;2023-09-07T12:04:43;37.50;60.90
39189;DHT22;24915;50.858;4.376;2023-09-07T12:07:10;37.50;61.20
39189;DHT22;24915;50.858;4.376;2023-09-07T12:09:35;37.60;60.90
39189;DHT22;24915;50.858;4.376;2023-09-07T12:12:04;37.50;59.70
39189;DHT22;24915;50.858;4.376;2023-09-07T12:14:29;36.90;61.40
39189;DHT22;24915;50.858;4.376;2023-09-07T12:16:56;36.70;60.80
39189;DHT22;24915;50.858;4.376;2023-09-07T12:19:22;36.90;62.10
39189;DHT22;24915;50.858;4.376;2023-09-07T12:21:48;37.10;62.10
39189;DHT22;24915;50.858;4.376;2023-09-07T12:24:14;37.40;61.60
39189;DHT22;24915;50.858;4.376;2023-09-07T12:26:39;37.50;59.90
39189;DHT22;24915;50.858;4.376;2023-09-07T12:29:05;37.30;60.30
39189;DHT22;24915;50.858;4.376;2023-09-07T12:31:31;37.60;60.80
39189;DHT22;24915;50.858;4.376;2023-09-07T12:33:57;37.80;60.30
39189;DHT22;24915;50.858;4.376;2023-09-07T12:36:23;38.20;59.70
39189;DHT22;24915;50.858;4.376;2023-09-07T12:38:49;38.40;58.80
39189;DHT22;24915;50.858;4.376;2023-09-07T12:41:14;38.10;59.40
39189;DHT22;24915;50.858;4.376;2023-09-07T12:43:41;37.80;59.00
39189;DHT22;24915;50.858;4.376;2023-09-07T12:46:08;37.00;59.90
39189;DHT22;24915;50.858;4.376;2023-09-07T12:48:35;36.90;60.90
39189;DHT22;24915;50.858;4.376;2023-09-07T12:51:00;37.00;61.50
39189;DHT22;24915;50.858;4.376;2023-09-07T12:53:26;37.30;60.90
39189;DHT22;24915;50.858;4.376;2023-09-07T12:55:53;37.50;60.10
39189;DHT22;24915;50.858;4.376;2023-09-07T12:58:19;37.80;59.80
39189;DHT22;24915;50.858;4.376;2023-09-07T13:00:44;38.10;61.00
39189;DHT22;24915;50.858;4.376;2023-09-07T13:03:10;38.30;59.40
39189;DHT22;24915;50.858;4.376;2023-09-07T13:05:37;38.10;58.00
39189;DHT22;24915;50.858;4.376;2023-09-07T13:08:03;37.60;58.50
39189;DHT22;24915;50.858;4.376;2023-09-07T13:10:29;37.50;59.90
39189;DHT22;24915;50.858;4.376;2023-09-07T13:12:55;37.70;58.90
39189;DHT22;24915;50.858;4.376;2023-09-07T13:15:21;37.60;58.90
39189;DHT22;24915;50.858;4.376;2023-09-07T13:17:48;37.40;59.30
39189;DHT22;24915;50.858;4.376;2023-09-07T13:20:13;37.30;59.60
39189;DHT22;24915;50.858;4.376;2023-09-07T13:22:39;37.20;59.30
39189;DHT22;24915;50.858;4.376;2023-09-07T13:25:05;36.90;59.50
39189;DHT22;24915;50.858;4.376;2023-09-07T13:27:31;37.00;60.10
39189;DHT22;24915;50.858;4.376;2023-09-07T13:29:57;36.80;59.90
39189;DHT22;24915;50.858;4.376;2023-09-07T13:32:23;36.60;61.00
39189;DHT22;24915;50.858;4.376;2023-09-07T13:34:50;36.50;61.40
39189;DHT22;24915;50.858;4.376;2023-09-07T13:37:15;36.50;61.40
39189;DHT22;24915;50.858;4.376;2023-09-07T13:39:41;36.60;61.50
39189;DHT22;24915;50.858;4.376;2023-09-07T13:42:07;37.20;61.20
39189;DHT22;24915;50.858;4.376;2023-09-07T13:44:33;37.00;60.70
39189;DHT22;24915;50.858;4.376;2023-09-07T13:46:59;36.70;61.00
39189;DHT22;24915;50.858;4.376;2023-09-07T13:49:25;36.80;61.20
39189;DHT22;24915;50.858;4.376;2023-09-07T13:51:51;37.20;61.10
39189;DHT22;24915;50.858;4.376;2023-09-07T13:54:16;37.70;61.80
39189;DHT22;24915;50.858;4.376;2023-09-07T13:56:42;38.00;60.20
39189;DHT22;24915;50.858;4.376;2023-09-07T13:59:10;38.40;60.30
39189;DHT22;24915;50.858;4.376;2023-09-07T14:01:37;38.50;59.90
39189;DHT22;24915;50.858;4.376;2023-09-07T14:04:03;38.50;59.40
39189;DHT22;24915;50.858;4.376;2023-09-07T14:06:29;38.10;59.60
39189;DHT22;24915;50.858;4.376;2023-09-07T14:08:54;37.80;60.00
39189;DHT22;24915;50.858;4.376;2023-09-07T14:11:20;37.10;60.80
39189;DHT22;24915;50.858;4.376;2023-09-07T14:13:48;36.90;60.20
39189;DHT22;24915;50.858;4.376;2023-09-07T14:16:19;36.70;61.00
39189;DHT22;24915;50.858;4.376;2023-09-07T14:18:45;37.00;61.30
39189;DHT22;24915;50.858;4.376;2023-09-07T14:21:16;37.40;60.20
39189;DHT22;24915;50.858;4.376;2023-09-07T14:23:42;37.00;60.30
39189;DHT22;24915;50.858;4.376;2023-09-07T14:26:08;36.70;61.40
39189;DHT22;24915;50.858;4.376;2023-09-07T14:28:34;37.00;61.10
39189;DHT22;24915;50.858;4.376;2023-09-07T14:31:00;37.40;60.80
39189;DHT22;24915;50.858;4.376;2023-09-07T14:33:29;37.60;59.80
39189;DHT22;24915;50.858;4.376;2023-09-07T14:35:55;38.50;59.70
39189;DHT22;24915;50.858;4.376;2023-09-07T14:38:21;40.10;58.70
39189;DHT22;24915;50.858;4.376;2023-09-07T14:40:48;41.80;55.80
39189;DHT22;24915;50.858;4.376;2023-09-07T14:43:15;42.70;53.50
39189;DHT22;24915;50.858;4.376;2023-09-07T14:45:42;43.30;52.70
39189;DHT22;24915;50.858;4.376;2023-09-07T14:48:08;43.70;51.90
39189;DHT22;24915;50.858;4.376;2023-09-07T14:50:34;43.60;52.40
39189;DHT22;24915;50.858;4.376;2023-09-07T14:52:59;43.50;51.70
39189;DHT22;24915;50.858;4.376;2023-09-07T14:55:25;43.40;52.30
39189;DHT22;24915;50.858;4.376;2023-09-07T14:57:51;43.70;52.40
39189;DHT22;24915;50.858;4.376;2023-09-07T15:00:16;44.10;52.10
39189;DHT22;24915;50.858;4.376;2023-09-07T15:02:42;43.40;52.40
39189;DHT22;24915;50.858;4.376;2023-09-07T15:05:08;42.70;53.40
39189;DHT22;24915;50.858;4.376;2023-09-07T15:07:33;42.10;54.50
39189;DHT22;24915;50.858;4.376;2023-09-07T15:09:59;41.40;55.70
39189;DHT22;24915;50.858;4.376;2023-09-07T15:12:25;40.70;56.80
39189;DHT22;24915;50.858;4.376;2023-09-07T15:14:52;40.10;57.20
39189;DHT22;24915;50.858;4.376;2023-09-07T15:17:18;39.40;58.60
39189;DHT22;24915;50.858;4.376;2023-09-07T15:19:43;38.70;59.50
39189;DHT22;24915;50.858;4.376;2023-09-07T15:22:09;38.20;60.70
39189;DHT22;24915;50.858;4.376;2023-09-07T15:24:35;37.80;61.20
39189;DHT22;24915;50.858;4.376;2023-09-07T15:27:08;37.30;62.40